Time;durP1;ratioP1;P1;durP2;ratioP2;P2;SDS_P1;SDS_P2;PMS_P1;PMS_P2;Temp;Humidity;BMP_temperature;BMP_pressure;BME280_temperature;BME280_humidity;BME280_pressure;Samples;Min_cycle;Max_cycle;Signal;HPM_P1;HPM_P2
2022/01/24 00:01:57;;;;;;;4.68;3.65;;;18.00;56.20;;;;;;10473655;28;20536;-57
2022/01/24 00:06:58;;;;;;;6.63;3.08;;;18.00;56.10;;;;;;10503384;28;20043;-57
2022/01/24 00:12:01;;;;;;;3.58;3.15;;;18.00;56.00;;;;;;10524787;28;20039;-57
2022/01/24 00:17:07;;;;;;;5.95;3.75;;;18.00;56.00;;;;;;10504869;28;20047;-56
2022/01/24 00:27:26;;;;;;;4.67;3.07;;;18.00;56.10;;;;;;10515662;28;20385;-57
2022/01/24 00:32:27;;;;;;;4.43;3.20;;;18.00;56.20;;;;;;10477325;28;20045;-57
2022/01/24 00:37:32;;;;;;;4.22;3.78;;;18.00;56.20;;;;;;10495590;28;20040;-56
2022/01/24 00:42:47;;;;;;;4.85;3.75;;;18.00;56.20;;;;;;10495490;28;20107;-57
2022/01/24 00:58:00;;;;;;;5.75;3.38;;;17.90;56.10;;;;;;10509335;28;20024;-57
2022/01/24 01:03:02;;;;;;;4.10;3.55;;;17.90;56.10;;;;;;10506834;28;20609;-56
2022/01/24 01:18:25;;;;;;;4.70;3.20;;;18.00;56.10;;;;;;10509270;28;20032;-56
2022/01/24 01:23:28;;;;;;;4.55;3.53;;;17.90;56.10;;;;;;10483486;28;20020;-55
2022/01/24 01:28:30;;;;;;;4.80;3.65;;;18.00;56.00;;;;;;10501138;28;20415;-56
2022/01/24 01:34:00;;;;;;;5.18;3.80;;;17.90;55.90;;;;;;10509814;28;20420;-55
2022/01/24 01:55:26;;;;;;;4.50;3.50;;;18.00;55.90;;;;;;10536045;28;20044;-56
2022/01/24 02:00:26;;;;;;;5.05;3.88;;;18.00;55.90;;;;;;10520260;28;20286;-56
2022/01/24 02:05:27;;;;;;;4.18;3.13;;;18.00;55.90;;;;;;10497637;28;20033;-57
2022/01/24 02:10:28;;;;;;;5.32;4.50;;;18.00;55.90;;;;;;10484057;28;20380;-55
2022/01/24 02:20:43;;;;;;;4.78;3.85;;;17.90;55.80;;;;;;10484068;28;20029;-57
2022/01/24 02:25:43;;;;;;;6.20;3.97;;;18.00;55.90;;;;;;10496666;28;20067;-56
2022/01/24 02:35:51;;;;;;;4.93;4.35;;;18.00;55.70;;;;;;10489496;28;20141;-57
2022/01/24 02:57:02;;;;;;;5.20;4.03;;;17.90;55.60;;;;;;10500282;28;20037;-56
2022/01/24 03:02:04;;;;;;;4.70;4.20;;;17.90;55.60;;;;;;10505427;28;20036;-57
2022/01/24 03:07:05;;;;;;;5.95;4.55;;;17.90;55.50;;;;;;10523508;28;20073;-58
2022/01/24 03:12:13;;;;;;;5.35;3.45;;;17.90;55.60;;;;;;10522598;28;20036;-56
2022/01/24 03:17:13;;;;;;;4.53;3.65;;;18.00;55.60;;;;;;10520851;28;20934;-57
2022/01/24 03:22:14;;;;;;;4.88;4.07;;;17.90;55.60;;;;;;10525619;28;20038;-55
2022/01/24 03:27:15;;;;;;;4.45;3.88;;;17.90;55.40;;;;;;10496043;28;20119;-57
2022/01/24 03:32:16;;;;;;;5.22;3.47;;;17.90;55.50;;;;;;10534094;28;20127;-57
2022/01/24 03:37:17;;;;;;;4.45;3.53;;;17.90;55.40;;;;;;10479993;28;20046;-57
2022/01/24 03:42:18;;;;;;;4.85;3.75;;;17.90;55.60;;;;;;10521921;28;20032;-57
2022/01/24 03:48:08;;;;;;;4.13;3.33;;;18.00;55.40;;;;;;10516647;28;20024;-57
2022/01/24 03:52:39;;;;;;;6.18;4.35;;;17.90;55.40;;;;;;10504368;28;20044;-56
2022/01/24 03:57:40;;;;;;;5.25;4.15;;;18.00;55.30;;;;;;10507889;28;20055;-57
2022/01/24 04:02:42;;;;;;;6.05;4.07;;;17.90;55.20;;;;;;10510196;28;20039;-55
2022/01/24 04:07:42;;;;;;;4.50;3.38;;;17.90;55.20;;;;;;10521232;28;20109;-56
2022/01/24 04:12:43;;;;;;;4.40;3.72;;;18.00;55.20;;;;;;10488400;28;20493;-57
2022/01/24 04:17:46;;;;;;;4.20;3.35;;;17.90;55.20;;;;;;10462348;28;20378;-56
2022/01/24 04:22:50;;;;;;;5.03;3.63;;;17.90;55.10;;;;;;10512885;28;20077;-56
2022/01/24 04:27:54;;;;;;;5.07;4.05;;;17.90;55.20;;;;;;10511553;28;20029;-57
2022/01/24 04:32:55;;;;;;;4.10;3.03;;;17.90;55.20;;;;;;10522852;28;20053;-56
2022/01/24 04:37:56;;;;;;;4.70;3.60;;;18.00;55.20;;;;;;10517341;28;20177;-55
2022/01/24 04:43:17;;;;;;;4.53;2.97;;;17.90;55.10;;;;;;10523824;28;20048;-55
2022/01/24 04:58:42;;;;;;;4.40;3.30;;;18.00;55.00;;;;;;10514800;28;20041;-56
2022/01/24 05:03:43;;;;;;;4.30;3.15;;;18.00;55.10;;;;;;10493868;28;20027;-57
2022/01/24 05:08:44;;;;;;;4.43;3.00;;;18.00;55.00;;;;;;10519228;28;20384;-56
2022/01/24 05:24:23;;;;;;;4.00;3.10;;;18.00;55.00;;;;;;10493515;28;20044;-57
2022/01/24 05:29:24;;;;;;;5.07;3.28;;;18.00;54.90;;;;;;10482087;28;20020;-56
2022/01/24 05:34:25;;;;;;;4.47;3.33;;;18.00;55.00;;;;;;10513736;28;20083;-56
2022/01/24 05:39:26;;;;;;;3.63;2.63;;;18.00;54.80;;;;;;10482124;28;20016;-57
2022/01/24 05:44:27;;;;;;;3.70;2.67;;;18.00;54.90;;;;;;10486651;28;20033;-56
2022/01/24 05:49:27;;;;;;;4.60;2.35;;;18.00;54.70;;;;;;10496116;28;20025;-56
2022/01/24 05:54:30;;;;;;;4.53;3.00;;;18.00;54.90;;;;;;10504114;28;20037;-57
2022/01/24 05:59:31;;;;;;;3.15;2.30;;;18.00;54.80;;;;;;10495887;28;20086;-57
2022/01/24 06:04:32;;;;;;;4.28;2.92;;;18.00;54.80;;;;;;10510904;28;20511;-57
2022/01/24 06:09:32;;;;;;;5.60;3.13;;;18.00;54.70;;;;;;10529693;28;20029;-56
2022/01/24 06:14:33;;;;;;;9.23;3.05;;;18.00;54.90;;;;;;10498285;28;20526;-59
2022/01/24 06:19:34;;;;;;;6.53;3.03;;;18.00;55.50;;;;;;10506594;28;20032;-58
2022/01/24 06:24:35;;;;;;;4.55;3.20;;;18.20;55.90;;;;;;10483603;28;20024;-58
2022/01/24 06:29:35;;;;;;;7.25;3.47;;;18.10;56.70;;;;;;10495792;28;20048;-58
2022/01/24 06:34:37;;;;;;;6.90;3.58;;;18.10;56.80;;;;;;10513327;28;20453;-57
2022/01/24 06:39:37;;;;;;;6.70;3.50;;;18.10;57.60;;;;;;10526342;28;20032;-58
2022/01/24 06:44:39;;;;;;;6.88;4.00;;;18.10;57.60;;;;;;10507244;28;20122;-57
2022/01/24 06:49:40;;;;;;;13.50;3.58;;;18.20;57.90;;;;;;10539582;28;20031;-58
2022/01/24 06:54:42;;;;;;;11.35;3.90;;;18.20;57.70;;;;;;10527270;28;20040;-60
2022/01/24 06:59:45;;;;;;;8.80;3.30;;;18.10;58.40;;;;;;10502127;28;20033;-56
2022/01/24 07:04:46;;;;;;;10.82;4.20;;;18.20;58.10;;;;;;10504750;28;20036;-57
2022/01/24 07:09:46;;;;;;;16.52;4.78;;;18.00;58.00;;;;;;10521378;28;20032;-56
2022/01/24 07:14:48;;;;;;;7.43;3.45;;;17.90;58.10;;;;;;10506553;28;20472;-56
2022/01/24 07:19:50;;;;;;;11.65;4.40;;;17.90;58.00;;;;;;10498229;28;20382;-57
2022/01/24 07:24:51;;;;;;;12.57;3.92;;;18.00;57.60;;;;;;10511272;28;20032;-56
2022/01/24 07:29:51;;;;;;;11.55;4.40;;;18.00;57.30;;;;;;10477766;28;20393;-55
2022/01/24 07:34:54;;;;;;;13.23;5.38;;;17.90;57.40;;;;;;10466088;28;20037;-56
2022/01/24 07:39:56;;;;;;;13.07;4.70;;;17.80;57.30;;;;;;10472110;28;20031;-58
2022/01/24 07:44:57;;;;;;;10.00;4.68;;;17.80;57.20;;;;;;10456744;28;20033;-57
2022/01/24 07:49:57;;;;;;;10.65;5.20;;;17.90;56.90;;;;;;10488642;28;20126;-57
2022/01/24 07:54:58;;;;;;;7.25;4.15;;;18.00;57.00;;;;;;10468022;28;20368;-58
2022/01/24 07:59:59;;;;;;;11.65;4.20;;;17.90;57.20;;;;;;10496696;28;20529;-55
2022/01/24 08:04:59;;;;;;;11.95;4.22;;;17.80;57.50;;;;;;10510315;28;20366;-56
2022/01/24 08:10:00;;;;;;;11.48;4.72;;;17.80;57.50;;;;;;10481104;28;20392;-57
2022/01/24 08:15:06;;;;;;;11.75;5.32;;;17.70;57.60;;;;;;10506477;28;20032;-56
2022/01/24 08:20:08;;;;;;;11.75;4.50;;;17.80;57.50;;;;;;10503164;28;20511;-56
2022/01/24 08:25:10;;;;;;;12.35;4.78;;;17.80;57.50;;;;;;10497995;28;20413;-57
2022/01/24 08:30:17;;;;;;;12.52;4.32;;;17.80;57.60;;;;;;10516189;28;20245;-56
2022/01/24 08:35:19;;;;;;;11.10;4.75;;;17.80;57.70;;;;;;10481501;28;20037;-54
2022/01/24 08:40:24;;;;;;;16.52;4.97;;;17.80;58.00;;;;;;10521701;28;20024;-57
2022/01/24 08:45:47;;;;;;;12.05;3.90;;;17.80;58.30;;;;;;10509907;28;20058;-56
2022/01/24 08:50:52;;;;;;;9.43;4.00;;;17.80;58.10;;;;;;10505906;28;20064;-60
2022/01/24 08:55:54;;;;;;;12.88;4.80;;;17.80;58.00;;;;;;10515648;28;20392;-57
2022/01/24 09:00:55;;;;;;;11.85;4.30;;;17.80;57.90;;;;;;10511419;28;20050;-57
2022/01/24 09:05:59;;;;;;;11.85;4.43;;;17.80;57.80;;;;;;10499082;28;20028;-57
2022/01/24 09:11:00;;;;;;;8.93;3.95;;;17.80;57.90;;;;;;10521725;28;20488;-57
2022/01/24 09:16:02;;;;;;;7.10;3.22;;;17.70;58.00;;;;;;10501892;28;20031;-58
2022/01/24 09:21:03;;;;;;;7.07;3.50;;;17.70;58.00;;;;;;10498822;28;20324;-58
2022/01/24 09:26:04;;;;;;;10.23;3.40;;;17.70;57.80;;;;;;10504286;28;20372;-57
2022/01/24 09:31:05;;;;;;;11.90;3.33;;;17.70;57.60;;;;;;10482753;28;20088;-57
2022/01/24 09:36:06;;;;;;;7.70;2.90;;;17.70;57.70;;;;;;10495199;28;20041;-57
2022/01/24 09:41:10;;;;;;;7.53;3.83;;;17.70;57.50;;;;;;10524161;28;20071;-57
2022/01/24 09:46:11;;;;;;;6.40;3.08;;;17.70;57.40;;;;;;10508388;28;20519;-57
2022/01/24 09:51:12;;;;;;;10.10;3.15;;;17.80;57.00;;;;;;10485068;28;20081;-57
2022/01/24 09:56:13;;;;;;;4.45;2.78;;;17.80;56.90;;;;;;10510974;28;20067;-57
2022/01/24 10:01:15;;;;;;;9.00;3.28;;;17.80;57.10;;;;;;10525232;28;20115;-58
2022/01/24 10:06:15;;;;;;;10.73;3.63;;;17.80;57.10;;;;;;10490899;28;20035;-57
2022/01/24 10:11:18;;;;;;;6.57;2.60;;;17.80;57.90;;;;;;10483778;28;20033;-57
2022/01/24 10:16:43;;;;;;;8.88;2.88;;;17.90;57.30;;;;;;10485821;28;20102;-54
2022/01/24 10:21:51;;;;;;;7.28;2.70;;;17.90;57.30;;;;;;10520836;28;20035;-56
2022/01/24 10:27:10;;;;;;;14.57;3.67;;;17.80;57.40;;;;;;10522700;28;20473;-55
2022/01/24 10:32:39;;;;;;;10.73;3.77;;;17.80;57.70;;;;;;10505971;28;20098;-56
2022/01/24 10:37:40;;;;;;;14.23;3.75;;;17.70;58.00;;;;;;10483831;28;20682;-56
2022/01/24 10:42:54;;;;;;;8.93;3.38;;;17.70;58.30;;;;;;10510269;28;20032;-57
2022/01/24 10:47:55;;;;;;;14.25;3.30;;;17.80;58.60;;;;;;10519846;28;20028;-57
2022/01/24 10:53:15;;;;;;;10.75;3.30;;;17.70;58.80;;;;;;10509465;28;20149;-57
2022/01/24 10:58:18;;;;;;;14.45;3.00;;;17.70;58.90;;;;;;10523316;28;20067;-55
2022/01/24 11:03:19;;;;;;;9.30;3.78;;;17.70;59.10;;;;;;10480688;28;20124;-58
2022/01/24 11:08:21;;;;;;;9.95;3.30;;;17.70;59.10;;;;;;10481246;28;20024;-57
2022/01/24 11:13:30;;;;;;;10.10;3.35;;;17.70;59.30;;;;;;10498466;28;20738;-57
2022/01/24 11:18:32;;;;;;;8.10;3.50;;;17.60;59.20;;;;;;10474596;28;20111;-56
2022/01/24 11:23:39;;;;;;;15.48;3.92;;;17.70;59.00;;;;;;10513125;28;20468;-57
2022/01/24 11:28:40;;;;;;;10.85;3.17;;;17.60;59.10;;;;;;10492412;28;20028;-56
2022/01/24 11:33:45;;;;;;;8.52;3.45;;;17.60;59.20;;;;;;10504872;28;20735;-56
2022/01/24 11:38:45;;;;;;;14.15;2.80;;;17.70;59.10;;;;;;10512007;28;20097;-57
2022/01/24 11:43:51;;;;;;;9.95;3.13;;;17.60;59.20;;;;;;10512399;28;20085;-57
2022/01/24 11:49:15;;;;;;;6.00;2.28;;;17.60;59.20;;;;;;10480753;28;20035;-57
2022/01/24 11:59:45;;;;;;;8.40;2.67;;;17.80;58.80;;;;;;10539082;28;20040;-57
2022/01/24 12:04:56;;;;;;;8.73;3.20;;;17.80;58.80;;;;;;10500482;28;20024;-56
2022/01/24 12:10:31;;;;;;;7.82;3.05;;;17.70;58.80;;;;;;10501659;28;20055;-57
2022/01/24 12:15:38;;;;;;;6.47;2.90;;;17.70;59.10;;;;;;10519045;28;20543;-57
2022/01/24 12:20:40;;;;;;;9.57;3.53;;;17.70;59.00;;;;;;10521958;28;20477;-57
2022/01/24 12:26:08;;;;;;;5.57;2.83;;;17.80;58.90;;;;;;10500329;28;20492;-57
2022/01/24 12:31:20;;;;;;;6.55;2.83;;;17.70;59.00;;;;;;10490060;28;20036;-57
2022/01/24 12:36:49;;;;;;;4.47;2.53;;;17.70;59.70;;;;;;10451872;28;20041;-57
2022/01/24 12:42:00;;;;;;;16.20;3.42;;;17.70;59.10;;;;;;10469121;28;20029;-57
2022/01/24 12:47:02;;;;;;;5.28;2.42;;;17.70;59.20;;;;;;10430861;28;20030;-57
2022/01/24 12:52:09;;;;;;;3.55;2.00;;;17.70;59.10;;;;;;10411689;28;20029;-57
2022/01/24 12:57:14;;;;;;;7.25;2.42;;;17.70;59.10;;;;;;10428614;28;20486;-57
2022/01/24 13:02:33;;;;;;;15.63;2.92;;;17.70;59.40;;;;;;10451486;28;20560;-57
2022/01/24 13:07:36;;;;;;;7.15;2.55;;;17.70;59.10;;;;;;10413724;28;20044;-57
2022/01/24 13:12:37;;;;;;;7.82;3.47;;;17.70;59.20;;;;;;10426311;28;20052;-57
2022/01/24 13:23:01;;;;;;;12.87;3.40;;;17.70;59.00;;;;;;10420731;28;20420;-57
2022/01/24 13:28:04;;;;;;;10.60;3.20;;;17.80;59.40;;;;;;10420178;28;20030;-55
2022/01/24 13:33:27;;;;;;;8.85;3.38;;;17.80;59.60;;;;;;10450616;28;20052;-58
2022/01/24 13:38:31;;;;;;;9.43;3.80;;;17.80;59.70;;;;;;10487370;28;20044;-57
2022/01/24 13:43:53;;;;;;;16.55;4.47;;;17.70;60.10;;;;;;10467560;28;20074;-56
2022/01/24 13:48:56;;;;;;;11.02;2.95;;;17.70;59.70;;;;;;10514496;28;20048;-55
2022/01/24 13:53:58;;;;;;;14.95;3.47;;;17.80;59.10;;;;;;10529210;28;20052;-56
2022/01/24 13:59:09;;;;;;;10.07;3.08;;;17.80;59.20;;;;;;10511479;28;20016;-55
2022/01/24 14:04:09;;;;;;;10.40;3.65;;;17.90;59.00;;;;;;10526181;28;20067;-57
2022/01/24 14:09:15;;;;;;;9.77;3.65;;;17.90;58.40;;;;;;10535599;28;20020;-56
2022/01/24 14:14:24;;;;;;;6.40;3.15;;;17.70;58.60;;;;;;10535900;28;20078;-55
2022/01/24 14:19:34;;;;;;;10.57;2.72;;;17.70;58.60;;;;;;10483424;28;20039;-57
2022/01/24 14:24:55;;;;;;;8.73;3.60;;;17.70;58.60;;;;;;10483907;28;20036;-56
2022/01/24 14:30:11;;;;;;;6.22;3.30;;;17.70;58.00;;;;;;10479632;28;20427;-56
2022/01/24 14:35:12;;;;;;;4.97;3.08;;;17.80;57.80;;;;;;10510821;28;20051;-56
2022/01/24 14:40:56;;;;;;;7.65;3.20;;;17.80;57.90;;;;;;10504500;28;20743;-56
2022/01/24 14:46:01;;;;;;;8.30;3.25;;;17.80;58.00;;;;;;10485690;28;20117;-56
2022/01/24 14:51:02;;;;;;;4.78;3.30;;;17.80;57.60;;;;;;10491401;28;20032;-55
2022/01/24 14:56:03;;;;;;;7.93;3.20;;;17.80;58.20;;;;;;10499125;28;20025;-55
2022/01/24 15:01:04;;;;;;;5.97;2.80;;;17.80;57.40;;;;;;10481349;28;20021;-56
2022/01/24 15:06:05;;;;;;;5.78;3.08;;;17.80;57.40;;;;;;10494891;28;20033;-55
2022/01/24 15:11:07;;;;;;;5.68;3.13;;;17.90;57.30;;;;;;10464252;28;20035;-56
2022/01/24 15:16:18;;;;;;;5.63;3.20;;;17.90;57.20;;;;;;10481196;28;20369;-56
2022/01/24 15:26:52;;;;;;;5.82;3.00;;;17.80;57.10;;;;;;10467336;28;20078;-56
2022/01/24 15:31:55;;;;;;;7.43;3.60;;;17.80;57.20;;;;;;10481409;28;20385;-56
2022/01/24 15:36:56;;;;;;;6.43;3.40;;;17.80;57.20;;;;;;10489042;28;20461;-56
2022/01/24 15:42:02;;;;;;;5.75;3.55;;;17.80;57.00;;;;;;10479483;28;20033;-57
2022/01/24 15:52:15;;;;;;;6.70;3.97;;;17.80;56.90;;;;;;10500972;28;20044;-57
2022/01/24 16:02:34;;;;;;;8.73;4.00;;;17.90;57.20;;;;;;10526215;28;20036;-57
2022/01/24 16:07:38;;;;;;;6.95;3.63;;;17.90;57.00;;;;;;10505666;28;20115;-58
2022/01/24 16:12:45;;;;;;;8.85;4.15;;;18.00;57.10;;;;;;10479056;28;20523;-56
2022/01/24 16:17:48;;;;;;;14.07;4.38;;;18.00;57.30;;;;;;10512110;28;20028;-58
2022/01/24 16:27:56;;;;;;;8.35;4.25;;;18.00;57.80;;;;;;10501139;28;20032;-58
2022/01/24 16:32:58;;;;;;;14.48;5.05;;;17.90;58.10;;;;;;10491260;28;20548;-59
2022/01/24 16:38:00;;;;;;;10.40;4.43;;;17.90;58.60;;;;;;10490927;28;20031;-58
2022/01/24 16:48:12;;;;;;;9.45;4.85;;;17.80;59.00;;;;;;10523201;28;20401;-58
2022/01/24 16:53:16;;;;;;;10.77;5.05;;;17.80;58.80;;;;;;10490839;28;20036;-56
2022/01/24 16:58:16;;;;;;;10.13;4.18;;;17.70;58.80;;;;;;10518918;28;20024;-57
2022/01/24 17:03:17;;;;;;;13.52;4.60;;;17.80;58.80;;;;;;10506244;28;20028;-56
2022/01/24 17:08:19;;;;;;;9.43;4.35;;;17.90;58.80;;;;;;10488229;28;20028;-55
2022/01/24 17:13:20;;;;;;;11.35;6.80;;;17.90;58.70;;;;;;10479737;28;20099;-56
2022/01/24 17:18:22;;;;;;;10.70;6.72;;;18.00;59.40;;;;;;10491231;28;20150;-57
2022/01/24 17:23:23;;;;;;;11.60;6.93;;;17.80;59.10;;;;;;10501873;28;20202;-58
2022/01/24 17:28:26;;;;;;;10.93;7.65;;;18.00;59.10;;;;;;10513456;28;20035;-60
2022/01/24 17:33:31;;;;;;;11.75;6.80;;;18.00;60.40;;;;;;10518109;28;20484;-60
2022/01/24 17:38:32;;;;;;;8.13;6.07;;;18.10;61.20;;;;;;10482364;28;20055;-57
2022/01/24 17:43:33;;;;;;;11.93;6.70;;;18.30;60.80;;;;;;10468756;28;20024;-59
2022/01/24 17:48:34;;;;;;;16.77;7.07;;;18.20;61.30;;;;;;10528854;28;20107;-59
2022/01/24 17:53:39;;;;;;;13.43;5.95;;;18.10;61.30;;;;;;10484435;28;20039;-58
2022/01/24 17:58:41;;;;;;;12.20;6.18;;;18.00;62.00;;;;;;10498415;28;20074;-59
2022/01/24 18:03:43;;;;;;;12.05;6.45;;;17.80;61.20;;;;;;10492873;28;20115;-60
2022/01/24 18:08:44;;;;;;;10.68;6.65;;;17.70;61.10;;;;;;10515213;28;20024;-59
2022/01/24 18:13:45;;;;;;;9.65;6.50;;;17.70;60.90;;;;;;10499619;28;20086;-59
2022/01/24 18:18:46;;;;;;;9.18;5.82;;;17.60;60.80;;;;;;10530040;28;20028;-58
2022/01/24 18:23:49;;;;;;;8.50;5.88;;;17.60;60.40;;;;;;10481295;28;20062;-59
2022/01/24 18:28:51;;;;;;;10.70;5.43;;;17.70;60.00;;;;;;10511441;28;20036;-59
2022/01/24 18:33:54;;;;;;;10.15;6.28;;;17.80;59.70;;;;;;10518655;28;20495;-60
2022/01/24 18:38:55;;;;;;;8.57;5.38;;;17.80;59.50;;;;;;10510645;28;20035;-59
2022/01/24 18:43:58;;;;;;;8.55;5.03;;;17.80;59.70;;;;;;10533762;28;20039;-58
2022/01/24 18:48:59;;;;;;;11.55;5.35;;;17.90;59.70;;;;;;10537566;28;20579;-58
2022/01/24 18:54:00;;;;;;;11.50;6.50;;;17.80;59.50;;;;;;10515516;28;20028;-59
2022/01/24 18:59:01;;;;;;;12.77;6.38;;;17.90;59.40;;;;;;10519459;28;20028;-59
2022/01/24 19:04:01;;;;;;;9.05;5.80;;;17.90;59.50;;;;;;10519809;28;20036;-60
2022/01/24 19:09:03;;;;;;;11.63;5.70;;;17.80;59.40;;;;;;10520557;28;20036;-59
2022/01/24 19:14:05;;;;;;;6.93;5.82;;;17.90;59.40;;;;;;10536630;28;20036;-59
2022/01/24 19:19:19;;;;;;;7.20;6.05;;;18.00;59.30;;;;;;10521285;28;20050;-59
2022/01/24 19:24:19;;;;;;;11.52;6.18;;;18.00;59.40;;;;;;10529385;28;20526;-59
2022/01/24 19:29:20;;;;;;;8.10;6.30;;;17.90;59.60;;;;;;10464748;28;20131;-59
2022/01/24 19:34:21;;;;;;;6.65;5.07;;;17.90;59.80;;;;;;10496611;28;20056;-60
2022/01/24 19:39:23;;;;;;;6.85;6.25;;;17.90;59.70;;;;;;10518421;28;20438;-59
2022/01/24 19:44:26;;;;;;;7.85;5.63;;;17.90;59.70;;;;;;10498722;28;20024;-58
2022/01/24 19:49:27;;;;;;;9.20;6.43;;;17.80;59.90;;;;;;10498274;28;20036;-59
2022/01/24 19:54:30;;;;;;;11.18;6.40;;;17.80;59.90;;;;;;10501796;28;20074;-58
2022/01/24 19:59:52;;;;;;;7.63;6.20;;;17.80;60.00;;;;;;10516309;28;20556;-56
2022/01/24 20:04:52;;;;;;;8.98;5.47;;;17.80;60.20;;;;;;10535945;28;20028;-59
2022/01/24 20:09:53;;;;;;;6.78;4.97;;;17.70;60.20;;;;;;10506172;28;20024;-58
2022/01/24 20:14:54;;;;;;;6.65;5.00;;;17.70;60.00;;;;;;10513501;28;20032;-58
2022/01/24 20:19:56;;;;;;;10.88;5.85;;;17.70;59.90;;;;;;10480328;28;20429;-57
2022/01/24 20:24:57;;;;;;;5.53;4.50;;;17.70;59.80;;;;;;10501714;28;20127;-58
2022/01/24 20:29:58;;;;;;;6.75;4.70;;;17.80;59.50;;;;;;10535920;28;20123;-58
2022/01/24 20:34:59;;;;;;;5.50;4.35;;;17.80;59.30;;;;;;10508514;28;20051;-59
2022/01/24 20:40:02;;;;;;;6.13;4.85;;;17.80;59.20;;;;;;10514858;28;20532;-59
2022/01/24 20:45:09;;;;;;;5.45;4.95;;;17.80;59.00;;;;;;10484233;28;20368;-58
2022/01/24 20:50:15;;;;;;;8.98;4.82;;;17.80;59.00;;;;;;10516670;28;20028;-58
2022/01/24 20:55:15;;;;;;;5.88;5.13;;;17.80;58.80;;;;;;10488244;28;20028;-58
2022/01/24 21:00:18;;;;;;;5.22;4.18;;;17.80;58.90;;;;;;10482191;28;20028;-58
2022/01/24 21:05:20;;;;;;;5.63;5.03;;;17.70;58.80;;;;;;10480281;28;20036;-59
2022/01/24 21:10:23;;;;;;;5.43;4.85;;;17.80;58.70;;;;;;10492547;28;20060;-58
2022/01/24 21:15:26;;;;;;;4.85;4.22;;;17.80;58.80;;;;;;10535064;28;20032;-58
2022/01/24 21:20:26;;;;;;;5.07;4.55;;;17.80;58.50;;;;;;10484917;28;20436;-58
2022/01/24 21:25:27;;;;;;;4.85;3.92;;;17.80;58.50;;;;;;10477797;28;20059;-56
2022/01/24 21:30:28;;;;;;;4.40;4.00;;;17.80;58.40;;;;;;10487058;28;20081;-58
2022/01/24 21:35:31;;;;;;;5.00;3.80;;;17.80;58.50;;;;;;10497161;28;20491;-58
2022/01/24 21:40:36;;;;;;;7.65;4.95;;;17.80;58.40;;;;;;10486075;28;20029;-59
2022/01/24 21:45:40;;;;;;;4.72;4.03;;;17.80;58.40;;;;;;10482544;28;20044;-59
2022/01/24 21:50:40;;;;;;;6.65;4.47;;;17.80;58.20;;;;;;10500056;28;20031;-58
2022/01/24 21:55:41;;;;;;;4.50;4.10;;;17.80;58.20;;;;;;10531056;28;20537;-58
2022/01/24 22:00:43;;;;;;;6.75;4.32;;;17.80;58.10;;;;;;10516489;28;20031;-59
2022/01/24 22:05:44;;;;;;;6.28;4.03;;;17.80;58.10;;;;;;10501595;28;20428;-59
2022/01/24 22:10:44;;;;;;;4.60;4.20;;;17.80;58.00;;;;;;10483323;28;20060;-58
2022/01/24 22:15:45;;;;;;;4.80;4.25;;;17.80;58.00;;;;;;10501858;28;20024;-58
2022/01/24 22:20:46;;;;;;;4.82;4.25;;;17.80;57.90;;;;;;10502118;28;20034;-58
2022/01/24 22:25:50;;;;;;;4.35;3.95;;;17.80;58.00;;;;;;10515305;28;20517;-59
2022/01/24 22:30:51;;;;;;;5.05;3.92;;;17.80;57.90;;;;;;10505086;28;20032;-59
2022/01/24 22:35:52;;;;;;;6.07;4.50;;;17.90;57.70;;;;;;10494449;28;20032;-59
2022/01/24 22:46:13;;;;;;;5.25;4.38;;;17.90;57.50;;;;;;10487418;28;20032;-59
2022/01/24 22:51:15;;;;;;;3.88;3.50;;;17.90;57.40;;;;;;10477983;28;20109;-58
2022/01/24 22:56:16;;;;;;;4.60;4.20;;;18.00;57.20;;;;;;10492686;28;20119;-59
2022/01/24 23:01:20;;;;;;;4.03;3.72;;;17.90;57.30;;;;;;10500479;28;20021;-59
2022/01/24 23:06:21;;;;;;;3.85;3.50;;;17.90;57.30;;;;;;10509519;28;20034;-59
2022/01/24 23:11:24;;;;;;;5.25;4.47;;;17.90;57.30;;;;;;10500035;28;20099;-59
2022/01/24 23:21:52;;;;;;;4.00;3.70;;;17.90;57.20;;;;;;10485024;28;20048;-59
2022/01/24 23:27:01;;;;;;;4.70;4.30;;;17.90;57.10;;;;;;10517201;28;20034;-57
2022/01/24 23:32:01;;;;;;;4.55;4.15;;;17.90;57.00;;;;;;10516987;28;20035;-59
2022/01/24 23:42:22;;;;;;;4.47;4.07;;;18.00;56.80;;;;;;10501633;28;20040;-59
2022/01/24 23:47:23;;;;;;;5.15;4.75;;;18.00;56.80;;;;;;10505031;28;20024;-59
2022/01/24 23:52:24;;;;;;;4.13;3.72;;;18.00;56.70;;;;;;10494607;28;20392;-58
2022/01/24 23:57:26;;;;;;;4.88;4.38;;;18.00;56.80;;;;;;10522296;28;20034;-59
